KTEX/TEX METAR and TAF weather

Enter ICAO airport designator
Station Type Date Time Source
KTEX METAR 2019/08/24 06:55 UTC NOAA

KTEX 240655Z AUTO 15005KT 10SM CLR 12/M01 A3039 RMK AO2


Station Type Date Time Source
KTEX Decoded METAR 2019/08/24 06:55 UTC NOAA

Station name not available
Aug 24, 2019 - 02:55 AM EDT / 2019.08.24 0655 UTC
Wind: from the SSE (150 degrees) at 6 MPH (5 KT):0
Visibility: 10 mile(s):0
Sky conditions: clear
Temperature: 53 F (12 C)
Dew Point: 30 F (-1 C)
Relative Humidity: 40%
Pressure (altimeter): 30.39 in. Hg (1029 hPa)
ob: KTEX 240655Z AUTO 15005KT 10SM CLR 12/M01 A3039 RMK AO2
cycle: 7

Station Type Date Time Source
KTEX TAF 2019/08/24 06:42 UTC NOAA

TAF KTEX 240540Z 2406/2506 13005KT P6SM SKC
FM241300 17005KT P6SM SKC
FM241500 00000KT P6SM SKC
FM241700 26007KT P6SM SKC

Example: see airport list